Time;durP1;ratioP1;P1;durP2;ratioP2;P2;SDS_P1;SDS_P2;PMS_P1;PMS_P2;Temp;Humidity;BMP_temperature;BMP_pressure;BME280_temperature;BME280_humidity;BME280_pressure;Samples;Min_cycle;Max_cycle;Signal;HPM_P1;HPM_P2
2023/04/07 00:00:37;;;;;;;16.92;10.15;;;;;;;-0.02;92.49;98573.06;4161063;28;20561;-70
2023/04/07 00:02:37;;;;;;;15.15;10.35;;;;;;;-0.01;91.72;98574.66;4167113;28;20286;-70
2023/04/07 00:04:37;;;;;;;16.10;9.38;;;;;;;-0.02;92.03;98566.81;4164396;28;20057;-70
2023/04/07 00:06:39;;;;;;;17.13;10.07;;;;;;;-0.01;90.70;98573.88;4162069;28;20112;-70
2023/04/07 00:08:40;;;;;;;13.10;9.30;;;;;;;-0.03;90.77;98566.03;4163093;28;20323;-70
2023/04/07 00:10:40;;;;;;;16.45;8.70;;;;;;;-0.04;90.71;98575.28;4162460;28;20373;-70
2023/04/07 00:12:40;;;;;;;18.02;10.15;;;;;;;-0.14;93.55;98580.97;4161147;28;20647;-70
2023/04/07 00:14:41;;;;;;;20.50;11.18;;;;;;;-0.13;96.26;98587.22;4162749;28;20038;-70
2023/04/07 00:16:41;;;;;;;18.30;10.77;;;;;;;-0.22;97.37;98572.72;4163697;28;20372;-70
2023/04/07 00:18:42;;;;;;;20.33;11.95;;;;;;;-0.33;97.64;98581.09;4161846;28;20106;-70
2023/04/07 00:20:42;;;;;;;20.15;12.05;;;;;;;-0.36;99.94;98573.53;4161826;28;20041;-70
2023/04/07 00:22:42;;;;;;;25.80;13.73;;;;;;;-0.45;100.00;98583.50;4161828;28;20045;-70
2023/04/07 00:24:43;;;;;;;28.88;17.30;;;;;;;-0.58;100.00;98592.47;4163561;28;20080;-70
2023/04/07 00:26:43;;;;;;;29.10;18.42;;;;;;;-0.63;100.00;98590.66;4153112;28;20469;-70
2023/04/07 00:28:44;;;;;;;25.52;16.75;;;;;;;-0.67;100.00;98588.84;4163336;28;20386;-70
2023/04/07 00:30:44;;;;;;;28.25;17.75;;;;;;;-0.71;100.00;98585.13;4165900;28;20045;-70
2023/04/07 00:32:44;;;;;;;28.08;16.65;;;;;;;-0.77;100.00;98572.75;4160929;28;20048;-70
2023/04/07 00:34:45;;;;;;;24.63;14.57;;;;;;;-0.73;100.00;98574.56;4162291;28;20051;-70
2023/04/07 00:36:50;;;;;;;21.10;12.65;;;;;;;-0.76;100.00;98571.63;4161963;28;20053;-69
2023/04/07 00:38:51;;;;;;;19.20;11.50;;;;;;;-0.76;100.00;98579.78;4162932;28;20503;-70
2023/04/07 00:41:00;;;;;;;20.85;12.57;;;;;;;-0.73;99.90;98571.84;4163973;28;20120;-70
2023/04/07 00:43:00;;;;;;;20.90;11.82;;;;;;;-0.80;100.00;98578.78;4160701;28;20042;-70
2023/04/07 00:45:01;;;;;;;22.90;12.60;;;;;;;-0.86;100.00;98576.16;4160810;28;20045;-70
2023/04/07 00:47:01;;;;;;;21.23;11.77;;;;;;;-0.83;99.70;98576.66;4162048;28;20079;-69
2023/04/07 00:49:01;;;;;;;23.52;11.98;;;;;;;-0.76;99.55;98582.50;4161043;28;20367;-69
2023/04/07 00:51:02;;;;;;;18.95;12.07;;;;;;;-0.68;98.05;98573.66;4162793;28;20211;-69
2023/04/07 00:53:04;;;;;;;19.58;12.07;;;;;;;-0.51;98.38;98570.31;4160544;28;20045;-69
2023/04/07 00:55:05;;;;;;;18.50;11.25;;;;;;;-0.49;96.12;98571.66;4162657;28;20492;-69
2023/04/07 00:57:05;;;;;;;18.85;11.10;;;;;;;-0.52;95.34;98571.44;4162479;28;20157;-69
2023/04/07 00:59:06;;;;;;;17.45;11.65;;;;;;;-0.55;96.19;98564.69;4162538;28;20045;-69
2023/04/07 01:01:12;;;;;;;16.70;11.50;;;;;;;-0.59;96.64;98569.91;4160787;28;20320;-69
2023/04/07 01:03:24;;;;;;;19.45;10.93;;;;;;;-0.60;96.64;98567.50;4161067;28;20302;-69
2023/04/07 01:05:43;;;;;;;19.35;11.52;;;;;;;-0.56;95.32;98571.25;4162970;28;20045;-69
2023/04/07 01:07:50;;;;;;;21.40;11.98;;;;;;;-0.64;96.06;98571.94;4180349;28;20048;-69
2023/04/07 01:10:05;;;;;;;16.30;11.18;;;;;;;-0.69;97.91;98572.84;4161408;28;20041;-69
2023/04/07 01:12:22;;;;;;;24.50;12.68;;;;;;;-0.76;98.05;98561.56;4161017;28;20090;-70
2023/04/07 01:14:24;;;;;;;21.27;12.65;;;;;;;-0.78;96.81;98563.00;4160359;28;20037;-69
2023/04/07 01:16:31;;;;;;;31.73;17.20;;;;;;;-0.90;97.47;98556.16;4162916;28;20060;-69
2023/04/07 01:18:33;;;;;;;24.95;14.32;;;;;;;-0.95;99.52;98552.72;4161380;28;20601;-69
2023/04/07 01:20:35;;;;;;;30.92;15.25;;;;;;;-0.99;100.00;98557.16;4162468;28;20049;-69
2023/04/07 01:22:43;;;;;;;29.27;17.00;;;;;;;-0.96;100.00;98561.97;4160422;28;20104;-69
2023/04/07 01:25:10;;;;;;;30.02;15.40;;;;;;;-0.88;100.00;98559.38;4161083;28;20052;-69
2023/04/07 01:27:20;;;;;;;26.33;15.77;;;;;;;-0.84;98.01;98562.28;4160363;28;20289;-70
2023/04/07 01:29:26;;;;;;;30.75;15.73;;;;;;;-0.83;98.12;98566.59;4161513;28;20048;-69
2023/04/07 01:31:27;;;;;;;30.17;15.27;;;;;;;-0.91;98.30;98562.69;4161339;28;20060;-69
2023/04/07 01:33:31;;;;;;;26.00;16.52;;;;;;;-0.97;100.00;98557.66;4160463;28;20059;-69
2023/04/07 01:35:34;;;;;;;35.60;18.17;;;;;;;-0.99;99.24;98554.44;4159941;28;20068;-69
2023/04/07 01:37:36;;;;;;;28.42;16.52;;;;;;;-0.98;98.52;98556.84;4161300;28;20049;-69
2023/04/07 01:39:37;;;;;;;26.77;15.02;;;;;;;-1.07;100.00;98564.09;4164890;28;20041;-69
2023/04/07 01:41:39;;;;;;;29.33;14.73;;;;;;;-1.16;100.00;98561.25;4160074;28;20075;-69
2023/04/07 01:43:40;;;;;;;23.58;15.05;;;;;;;-1.24;100.00;98553.81;4160002;28;20053;-70
2023/04/07 01:45:42;;;;;;;27.27;16.38;;;;;;;-1.32;100.00;98554.47;4160631;28;20049;-69
2023/04/07 01:47:43;;;;;;;33.47;17.07;;;;;;;-1.29;100.00;98553.06;4161399;28;20105;-70
2023/04/07 01:49:45;;;;;;;26.52;15.80;;;;;;;-1.22;100.00;98558.94;4168009;28;20324;-69
2023/04/07 01:51:49;;;;;;;27.25;16.92;;;;;;;-1.22;100.00;98550.78;4160638;28;20090;-69
2023/04/07 01:53:49;;;;;;;28.20;16.85;;;;;;;-1.26;100.00;98557.91;4159821;28;20034;-69
2023/04/07 01:55:52;;;;;;;36.00;18.60;;;;;;;-1.34;100.00;98564.00;4160398;28;20048;-70
2023/04/07 01:57:53;;;;;;;32.70;17.75;;;;;;;-1.44;100.00;98556.84;4162367;28;20239;-69
2023/04/07 01:59:53;;;;;;;26.95;16.40;;;;;;;-1.47;100.00;98560.16;4161955;28;20462;-69
2023/04/07 02:01:53;;;;;;;23.27;15.15;;;;;;;-1.44;100.00;98570.41;4164762;28;20489;-69
2023/04/07 02:04:10;;;;;;;28.08;15.05;;;;;;;-1.53;100.00;98564.88;4159487;28;20425;-69
2023/04/07 02:06:14;;;;;;;20.98;13.27;;;;;;;-1.62;100.00;98555.78;4161296;28;20046;-69
2023/04/07 02:08:17;;;;;;;22.02;12.05;;;;;;;-1.65;100.00;98548.25;4161995;28;20037;-69
2023/04/07 02:10:21;;;;;;;20.13;11.15;;;;;;;-1.68;100.00;98558.88;4159467;28;20029;-69
2023/04/07 02:12:24;;;;;;;20.20;12.65;;;;;;;-1.74;100.00;98556.28;4160350;28;20170;-69
2023/04/07 02:14:25;;;;;;;21.80;13.10;;;;;;;-1.74;100.00;98561.69;4160094;28;20405;-70
2023/04/07 02:16:30;;;;;;;20.80;12.32;;;;;;;-1.78;100.00;98555.22;4161568;28;20041;-69
2023/04/07 02:18:31;;;;;;;20.75;11.85;;;;;;;-1.71;100.00;98550.25;4159187;28;20041;-69
2023/04/07 02:20:34;;;;;;;16.33;10.32;;;;;;;-1.71;100.00;98549.44;4162928;28;20056;-69
2023/04/07 02:22:36;;;;;;;19.58;10.90;;;;;;;-1.76;100.00;98541.38;4165129;28;20048;-69
2023/04/07 02:24:40;;;;;;;19.30;12.30;;;;;;;-1.83;100.00;98547.16;4160565;28;20514;-69
2023/04/07 02:26:41;;;;;;;25.70;12.27;;;;;;;-1.79;100.00;98537.34;4160742;28;20421;-69
2023/04/07 02:28:42;;;;;;;22.70;11.98;;;;;;;-1.72;100.00;98543.22;4161394;28;20053;-69
2023/04/07 02:30:42;;;;;;;31.67;11.40;;;;;;;-1.74;100.00;98544.59;4159520;28;20041;-69
2023/04/07 02:32:42;;;;;;;18.10;11.30;;;;;;;-1.78;100.00;98541.66;4163359;28;20048;-69
2023/04/07 02:34:42;;;;;;;20.98;11.90;;;;;;;-1.85;100.00;98543.16;4160898;28;20076;-69
2023/04/07 02:36:43;;;;;;;18.88;11.68;;;;;;;-1.82;100.00;98543.38;4160149;28;20305;-69
2023/04/07 02:38:43;;;;;;;20.70;13.07;;;;;;;-1.73;100.00;98551.66;4164030;28;20059;-69
2023/04/07 02:40:43;;;;;;;19.58;11.80;;;;;;;-1.81;100.00;98547.69;4159757;28;20347;-69
2023/04/07 02:42:45;;;;;;;18.70;11.73;;;;;;;-1.84;100.00;98547.47;4158458;28;20041;-69
2023/04/07 02:44:45;;;;;;;21.48;11.07;;;;;;;-1.91;100.00;98542.41;4160238;28;20139;-69
2023/04/07 02:46:45;;;;;;;17.05;11.02;;;;;;;-1.92;100.00;98545.41;4161030;28;20082;-69
2023/04/07 02:48:46;;;;;;;16.92;10.63;;;;;;;-1.94;100.00;98548.44;4160459;28;20191;-69
2023/04/07 02:50:46;;;;;;;21.23;11.88;;;;;;;-2.02;100.00;98549.91;4162693;28;20377;-69
2023/04/07 02:52:46;;;;;;;18.55;10.75;;;;;;;-1.90;100.00;98545.91;4161620;28;20042;-69
2023/04/07 02:54:47;;;;;;;17.60;10.65;;;;;;;-1.90;100.00;98552.19;4160018;28;20405;-69
2023/04/07 02:56:47;;;;;;;19.58;10.95;;;;;;;-1.87;100.00;98545.34;4159538;28;20061;-69
2023/04/07 02:58:47;;;;;;;18.35;11.15;;;;;;;-1.86;100.00;98553.19;4160591;28;20049;-69
2023/04/07 03:00:48;;;;;;;14.73;10.13;;;;;;;-1.81;100.00;98549.59;4159896;28;20402;-69
2023/04/07 03:02:48;;;;;;;21.13;10.27;;;;;;;-1.85;100.00;98549.38;4159820;28;20057;-69
2023/04/07 03:04:50;;;;;;;22.33;11.02;;;;;;;-1.75;100.00;98554.63;4158606;28;20473;-69
2023/04/07 03:06:51;;;;;;;25.77;11.55;;;;;;;-1.80;100.00;98551.22;4160509;28;20463;-69
2023/04/07 03:08:51;;;;;;;16.30;9.82;;;;;;;-1.86;100.00;98547.75;4160836;28;20049;-69
2023/04/07 03:10:52;;;;;;;19.88;10.60;;;;;;;-1.95;100.00;98546.81;4160202;28;20121;-69
2023/04/07 03:12:52;;;;;;;18.40;10.20;;;;;;;-1.91;100.00;98547.03;4159116;28;20122;-69
2023/04/07 03:14:52;;;;;;;21.73;12.40;;;;;;;-1.96;100.00;98550.63;4160894;28;20402;-69
2023/04/07 03:16:53;;;;;;;26.35;12.90;;;;;;;-2.09;100.00;98541.31;4160758;28;20052;-69
2023/04/07 03:18:53;;;;;;;22.38;11.65;;;;;;;-2.09;100.00;98535.09;4159444;28;20111;-69
2023/04/07 03:20:54;;;;;;;21.20;11.98;;;;;;;-2.18;100.00;98537.66;4160430;28;20049;-69
2023/04/07 03:22:55;;;;;;;23.23;12.73;;;;;;;-2.09;100.00;98537.81;4158937;28;20140;-69
2023/04/07 03:24:56;;;;;;;27.38;12.68;;;;;;;-2.12;100.00;98539.22;4158272;28;20069;-69
2023/04/07 03:26:56;;;;;;;24.02;10.95;;;;;;;-2.13;100.00;98536.81;4160609;28;20045;-69
2023/04/07 03:28:56;;;;;;;23.25;12.52;;;;;;;-2.13;100.00;98526.75;4160116;28;20054;-69
2023/04/07 03:30:57;;;;;;;22.52;12.07;;;;;;;-2.12;100.00;98531.06;4160425;28;20080;-69
2023/04/07 03:32:57;;;;;;;21.15;12.63;;;;;;;-2.01;100.00;98534.44;4161650;28;20393;-69
2023/04/07 03:34:57;;;;;;;25.35;12.43;;;;;;;-2.09;100.00;98525.06;4164093;28;20065;-69
2023/04/07 03:36:57;;;;;;;25.65;12.38;;;;;;;-2.19;100.00;98533.34;4162631;28;20474;-69
2023/04/07 03:38:58;;;;;;;20.80;12.55;;;;;;;-2.19;100.00;98535.25;4163631;28;20072;-68
2023/04/07 03:40:59;;;;;;;18.05;12.18;;;;;;;-2.18;100.00;98534.16;4163835;28;20049;-69
2023/04/07 03:42:59;;;;;;;28.90;13.07;;;;;;;-2.19;100.00;98532.53;4161893;28;20404;-69
2023/04/07 03:44:59;;;;;;;28.08;12.00;;;;;;;-2.26;100.00;98527.47;4161453;28;20520;-69
2023/04/07 03:47:00;;;;;;;20.52;11.32;;;;;;;-2.34;100.00;98534.38;4163708;28;20087;-69
2023/04/07 03:49:01;;;;;;;21.60;12.00;;;;;;;-2.39;100.00;98537.16;4162435;28;20386;-69
2023/04/07 03:51:01;;;;;;;21.45;11.75;;;;;;;-2.44;100.00;98534.50;4162974;28;20123;-69
2023/04/07 03:53:01;;;;;;;18.75;11.32;;;;;;;-2.50;100.00;98529.44;4160786;28;20333;-69
2023/04/07 03:55:02;;;;;;;25.30;11.93;;;;;;;-2.55;100.00;98528.44;4161924;28;20041;-68
2023/04/07 03:57:02;;;;;;;17.80;11.75;;;;;;;-2.53;100.00;98536.25;4162519;28;20041;-69
2023/04/07 03:59:03;;;;;;;19.70;11.27;;;;;;;-2.53;100.00;98528.13;4161394;28;20041;-69
2023/04/07 04:01:03;;;;;;;22.38;11.43;;;;;;;-2.55;100.00;98527.63;4163110;28;20041;-68
2023/04/07 04:03:04;;;;;;;18.70;10.85;;;;;;;-2.63;100.00;98536.41;4161670;28;20061;-68
2023/04/07 04:05:05;;;;;;;18.17;12.38;;;;;;;-2.72;100.00;98533.53;4168575;28;20043;-68
2023/04/07 04:07:05;;;;;;;17.70;11.07;;;;;;;-2.72;100.00;98538.94;4162426;28;20037;-69
2023/04/07 04:09:05;;;;;;;20.88;11.82;;;;;;;-2.76;100.00;98529.78;4162821;28;20099;-68
2023/04/07 04:11:06;;;;;;;19.52;11.13;;;;;;;-2.81;100.00;98529.84;4161827;28;20542;-68
2023/04/07 04:13:06;;;;;;;18.38;11.13;;;;;;;-2.88;100.00;98532.91;4161497;28;20037;-69
2023/04/07 04:15:07;;;;;;;17.73;11.52;;;;;;;-2.86;100.00;98530.69;4162292;28;20037;-68
2023/04/07 04:17:08;;;;;;;19.48;10.65;;;;;;;-2.81;100.00;98535.25;4161805;28;20053;-68
2023/04/07 04:19:08;;;;;;;19.65;10.35;;;;;;;-2.78;100.00;98525.75;4167148;28;20440;-69
2023/04/07 04:21:08;;;;;;;19.15;11.90;;;;;;;-2.77;100.00;98536.28;4162009;28;20064;-68
2023/04/07 04:23:09;;;;;;;18.10;9.63;;;;;;;-2.76;100.00;98537.09;4160946;28;20160;-69
2023/04/07 04:25:09;;;;;;;18.65;10.32;;;;;;;-2.74;100.00;98530.28;4161641;28;20458;-68
2023/04/07 04:27:09;;;;;;;15.68;10.85;;;;;;;-2.82;100.00;98536.34;4161643;28;20371;-68
2023/04/07 04:29:10;;;;;;;21.30;12.80;;;;;;;-2.92;100.00;98528.34;4162943;28;20077;-69
2023/04/07 04:31:10;;;;;;;18.58;11.55;;;;;;;-2.86;100.00;98530.69;4161483;28;20496;-68
2023/04/07 04:33:10;;;;;;;15.75;10.63;;;;;;;-2.75;100.00;98533.28;4161864;28;20066;-68
2023/04/07 04:35:10;;;;;;;21.35;11.23;;;;;;;-2.70;100.00;98538.66;4161429;28;20501;-68
2023/04/07 04:37:11;;;;;;;22.55;11.55;;;;;;;-2.74;100.00;98535.69;4161374;28;20098;-69
2023/04/07 04:39:11;;;;;;;20.40;11.75;;;;;;;-2.85;100.00;98536.94;4167355;28;20048;-68
2023/04/07 04:41:11;;;;;;;19.25;10.35;;;;;;;-2.81;100.00;98535.25;4161510;28;20042;-69
2023/04/07 04:43:12;;;;;;;22.08;11.80;;;;;;;-2.83;100.00;98540.94;4160834;28;20045;-69
2023/04/07 04:45:12;;;;;;;19.67;11.05;;;;;;;-2.91;100.00;98546.19;4161752;28;20280;-69
2023/04/07 04:47:12;;;;;;;15.23;10.43;;;;;;;-2.98;100.00;98537.59;4162061;28;20576;-69
2023/04/07 04:49:14;;;;;;;19.42;11.43;;;;;;;-3.01;100.00;98544.41;4162233;28;20508;-69
2023/04/07 04:51:14;;;;;;;24.85;13.07;;;;;;;-3.01;100.00;98549.81;4161618;28;20120;-69
2023/04/07 04:53:15;;;;;;;24.08;12.85;;;;;;;-2.97;100.00;98544.66;4160979;28;20372;-69
2023/04/07 04:55:15;;;;;;;28.85;13.77;;;;;;;-2.98;100.00;98548.44;4163132;28;20591;-69
2023/04/07 04:57:15;;;;;;;33.67;15.52;;;;;;;-2.91;100.00;98538.88;4161211;28;20033;-69
2023/04/07 04:59:16;;;;;;;31.35;14.85;;;;;;;-2.84;100.00;98538.53;4161575;28;20053;-68
2023/04/07 05:01:16;;;;;;;30.55;15.27;;;;;;;-2.80;100.00;98536.06;4162202;28;20437;-69
2023/04/07 05:03:16;;;;;;;30.02;15.27;;;;;;;-2.78;100.00;98533.88;4161818;28;20087;-69
2023/04/07 05:05:17;;;;;;;29.90;15.25;;;;;;;-2.91;100.00;98529.94;4161043;28;20037;-69
2023/04/07 05:07:17;;;;;;;32.53;16.50;;;;;;;-2.96;100.00;98541.66;4160931;28;20038;-69
2023/04/07 05:09:17;;;;;;;37.08;16.60;;;;;;;-2.99;100.00;98536.81;4162516;28;20041;-69
2023/04/07 05:11:18;;;;;;;31.73;15.80;;;;;;;-2.92;100.00;98541.88;4160554;28;20157;-69
2023/04/07 05:13:18;;;;;;;33.20;15.88;;;;;;;-2.82;100.00;98545.25;4160612;28;20184;-69
2023/04/07 05:15:18;;;;;;;26.88;15.32;;;;;;;-2.73;100.00;98539.22;4162342;28;20046;-69
2023/04/07 05:17:19;;;;;;;23.15;12.35;;;;;;;-2.75;100.00;98542.22;4161416;28;20489;-69
2023/04/07 05:19:19;;;;;;;22.80;12.07;;;;;;;-2.74;100.00;98543.00;4164741;28;20321;-69
2023/04/07 05:21:20;;;;;;;26.00;12.43;;;;;;;-2.77;100.00;98543.59;4163531;28;20777;-69
2023/04/07 05:23:21;;;;;;;24.73;11.40;;;;;;;-2.83;100.00;98540.94;4161077;28;20045;-69
2023/04/07 05:25:21;;;;;;;22.85;11.60;;;;;;;-2.80;100.00;98544.19;4164359;28;20044;-69
2023/04/07 05:27:21;;;;;;;26.67;12.93;;;;;;;-2.77;100.00;98543.59;4161452;28;20052;-69
2023/04/07 05:29:22;;;;;;;28.67;12.73;;;;;;;-2.75;100.00;98547.63;4161345;28;20053;-69
2023/04/07 05:31:22;;;;;;;22.25;10.70;;;;;;;-2.72;100.00;98536.22;4160498;28;20176;-69
2023/04/07 05:33:23;;;;;;;27.00;12.57;;;;;;;-2.66;100.00;98536.97;4161176;28;20480;-69
2023/04/07 05:35:23;;;;;;;24.63;11.60;;;;;;;-2.69;100.00;98535.66;4162069;28;20144;-69
2023/04/07 05:37:23;;;;;;;18.67;11.15;;;;;;;-2.62;100.00;98538.00;4160517;28;20059;-69
2023/04/07 05:39:23;;;;;;;20.35;11.65;;;;;;;-2.55;100.00;98541.97;4161672;28;20470;-69
2023/04/07 05:41:24;;;;;;;19.50;11.85;;;;;;;-2.50;100.00;98541.09;4160862;28;20428;-69
2023/04/07 05:43:24;;;;;;;20.33;10.70;;;;;;;-2.49;100.00;98536.47;4159946;28;20076;-69
2023/04/07 05:45:24;;;;;;;22.75;12.15;;;;;;;-2.49;100.00;98539.97;4160492;28;20516;-69
2023/04/07 05:47:25;;;;;;;21.25;12.50;;;;;;;-2.53;100.00;98533.56;4161568;28;20198;-69
2023/04/07 05:49:25;;;;;;;21.02;11.68;;;;;;;-2.55;100.00;98541.16;4160683;28;20041;-69
2023/04/07 05:51:26;;;;;;;21.23;11.57;;;;;;;-2.50;100.00;98537.56;4164825;28;20496;-69
2023/04/07 05:53:26;;;;;;;24.95;12.68;;;;;;;-2.42;100.00;98539.63;4159775;28;20115;-69
2023/04/07 05:55:26;;;;;;;19.55;11.45;;;;;;;-2.36;100.00;98546.59;4160035;28;20049;-69
2023/04/07 05:57:27;;;;;;;23.20;12.07;;;;;;;-2.31;100.00;98541.13;4164633;28;20076;-69
2023/04/07 05:59:27;;;;;;;31.38;15.18;;;;;;;-2.28;100.00;98551.38;4163342;28;20172;-69
2023/04/07 06:01:28;;;;;;;29.20;15.50;;;;;;;-2.24;100.00;98548.88;4124442;28;20119;-69
2023/04/07 06:03:28;;;;;;;39.75;17.27;;;;;;;-2.20;100.00;98541.78;4146793;28;20132;-69
2023/04/07 06:05:28;;;;;;;31.33;16.30;;;;;;;-2.08;100.00;98547.56;4161061;28;20503;-69
2023/04/07 06:07:29;;;;;;;35.22;17.95;;;;;;;-2.05;100.00;98541.56;4159641;28;20051;-69
2023/04/07 06:09:29;;;;;;;40.40;21.75;;;;;;;-1.95;100.00;98551.44;4166759;28;20536;-69
2023/04/07 06:11:30;;;;;;;35.28;19.40;;;;;;;-1.86;100.00;98555.91;4159764;28;20049;-69
2023/04/07 06:13:30;;;;;;;29.00;15.68;;;;;;;-1.83;100.00;98547.16;4159661;28;20126;-69
2023/04/07 06:15:30;;;;;;;26.15;14.05;;;;;;;-1.78;100.00;98552.53;4162660;28;20053;-69
2023/04/07 06:17:31;;;;;;;23.77;12.82;;;;;;;-1.72;100.00;98558.69;4160070;28;20125;-69
2023/04/07 06:19:31;;;;;;;19.58;10.93;;;;;;;-1.69;100.00;98558.06;4160802;28;20048;-69
2023/04/07 06:21:32;;;;;;;26.63;13.38;;;;;;;-1.65;100.00;98558.31;4159025;28;20129;-69
2023/04/07 06:23:33;;;;;;;31.55;12.77;;;;;;;-1.61;100.00;98559.31;4159442;28;20380;-69
2023/04/07 06:25:33;;;;;;;26.40;11.65;;;;;;;-1.55;100.00;98555.44;4160461;28;20045;-69
2023/04/07 06:27:34;;;;;;;19.42;11.73;;;;;;;-1.51;100.00;98546.38;4159668;28;20381;-69
2023/04/07 06:29:35;;;;;;;24.83;13.77;;;;;;;-1.44;100.00;98560.38;4160492;28;20048;-69
2023/04/07 06:31:36;;;;;;;22.58;14.43;;;;;;;-1.36;100.00;98553.47;4158977;28;20044;-69
2023/04/07 06:33:36;;;;;;;28.58;14.40;;;;;;;-1.28;100.00;98547.34;4159917;28;20119;-69
2023/04/07 06:35:38;;;;;;;29.77;15.13;;;;;;;-1.18;100.00;98552.59;4161000;28;20037;-69
2023/04/07 06:37:39;;;;;;;26.02;13.50;;;;;;;-1.08;100.00;98554.31;4160967;28;20088;-69
2023/04/07 06:39:39;;;;;;;23.95;12.95;;;;;;;-1.02;100.00;98555.81;4160032;28;20045;-69
2023/04/07 06:41:41;;;;;;;27.45;13.88;;;;;;;-0.94;100.00;98548.91;4160467;28;20045;-69
2023/04/07 06:43:48;;;;;;;22.27;11.95;;;;;;;-0.87;100.00;98563.69;4160316;28;20095;-69
2023/04/07 06:45:48;;;;;;;26.50;12.15;;;;;;;-0.78;100.00;98544.78;4159092;28;20049;-69
2023/04/07 06:47:48;;;;;;;20.90;11.93;;;;;;;-0.69;100.00;98561.19;4159586;28;20047;-69
2023/04/07 06:49:49;;;;;;;26.42;12.77;;;;;;;-0.59;100.00;98556.34;4161668;28;20048;-69
2023/04/07 06:51:49;;;;;;;25.08;12.73;;;;;;;-0.50;100.00;98567.28;4159628;28;20042;-69
2023/04/07 06:53:50;;;;;;;22.65;12.55;;;;;;;-0.44;100.00;98548.97;4158602;28;20041;-69
2023/04/07 06:55:50;;;;;;;21.77;12.35;;;;;;;-0.36;100.00;98559.13;4159989;28;20064;-69
2023/04/07 06:57:51;;;;;;;21.55;11.80;;;;;;;-0.31;100.00;98559.03;4159627;28;20044;-69
2023/04/07 06:59:51;;;;;;;23.88;12.35;;;;;;;-0.26;100.00;98558.09;4159085;28;20064;-69
2023/04/07 07:01:51;;;;;;;25.35;11.85;;;;;;;-0.21;100.00;98553.38;4166082;28;20042;-69
2023/04/07 07:03:52;;;;;;;23.52;11.93;;;;;;;-0.13;100.00;98549.13;4162838;28;20750;-69
2023/04/07 07:05:55;;;;;;;24.55;12.88;;;;;;;-0.06;100.00;98552.25;4159051;28;20077;-69
2023/04/07 07:07:55;;;;;;;22.08;12.43;;;;;;;0.02;100.00;98548.78;4159282;28;20051;-69
2023/04/07 07:09:55;;;;;;;24.75;12.68;;;;;;;0.11;100.00;98552.38;4160480;28;20120;-69
2023/04/07 07:11:56;;;;;;;27.25;12.90;;;;;;;0.21;100.00;98556.78;4159134;28;20049;-69
2023/04/07 07:13:56;;;;;;;21.20;12.90;;;;;;;0.32;100.00;98555.41;4157915;28;20037;-69
2023/04/07 07:15:57;;;;;;;23.88;13.15;;;;;;;0.41;100.00;98548.13;4160416;28;20486;-69
2023/04/07 07:17:57;;;;;;;25.35;12.30;;;;;;;0.49;100.00;98563.72;4159035;28;20107;-69
2023/04/07 07:19:57;;;;;;;23.13;13.50;;;;;;;0.62;100.00;98555.78;4159883;28;20111;-69
2023/04/07 07:21:58;;;;;;;26.08;12.80;;;;;;;0.71;100.00;98562.09;4165078;28;20292;-69
2023/04/07 07:23:58;;;;;;;20.70;12.43;;;;;;;0.76;100.00;98554.59;4161456;28;20087;-69
2023/04/07 07:25:58;;;;;;;26.02;14.48;;;;;;;0.85;100.00;98562.81;4159363;28;20072;-69
2023/04/07 07:27:58;;;;;;;28.70;13.82;;;;;;;0.95;100.00;98567.19;4159429;28;20045;-69
2023/04/07 07:29:59;;;;;;;25.05;13.48;;;;;;;1.07;100.00;98556.50;4166484;28;20068;-69
2023/04/07 07:31:59;;;;;;;26.35;15.63;;;;;;;1.17;100.00;98556.25;4158651;28;20381;-69
2023/04/07 07:34:00;;;;;;;23.42;15.40;;;;;;;1.26;100.00;98559.00;4158414;28;20092;-69
2023/04/07 07:36:00;;;;;;;26.60;15.88;;;;;;;1.32;100.00;98553.09;4159207;28;20053;-69
2023/04/07 07:38:00;;;;;;;23.42;12.80;;;;;;;1.56;100.00;98560.88;4163021;28;20508;-69
2023/04/07 07:40:01;;;;;;;20.15;12.38;;;;;;;1.78;100.00;98561.88;4159871;28;20049;-70
2023/04/07 07:42:01;;;;;;;17.92;10.52;;;;;;;1.89;100.00;98563.97;4159114;28;20531;-69
2023/04/07 07:44:02;;;;;;;23.95;11.48;;;;;;;1.98;100.00;98569.44;4159526;28;20423;-70
2023/04/07 07:46:03;;;;;;;19.63;11.23;;;;;;;2.06;100.00;98565.13;4158831;28;20037;-70
2023/04/07 07:48:03;;;;;;;25.27;13.40;;;;;;;2.16;100.00;98564.84;4158648;28;20065;-70
2023/04/07 07:50:04;;;;;;;20.52;12.20;;;;;;;2.31;100.00;98560.81;4159223;28;20045;-69
2023/04/07 07:52:04;;;;;;;21.83;13.18;;;;;;;2.41;100.00;98568.69;4158922;28;20034;-69
2023/04/07 07:54:05;;;;;;;19.65;12.05;;;;;;;2.57;100.00;98560.81;4160412;28;20418;-69
2023/04/07 07:56:05;;;;;;;19.63;11.35;;;;;;;2.67;100.00;98563.19;4165266;28;20090;-69
2023/04/07 07:58:06;;;;;;;21.35;10.95;;;;;;;2.76;100.00;98572.97;4158968;28;20022;-70
2023/04/07 08:00:07;;;;;;;18.58;11.52;;;;;;;2.94;100.00;98576.47;4158741;28;20025;-69
2023/04/07 08:02:07;;;;;;;24.80;12.48;;;;;;;3.18;100.00;98575.13;4163920;28;20100;-70
2023/04/07 08:04:08;;;;;;;17.45;10.95;;;;;;;3.26;100.00;98577.84;4165819;28;20040;-70
2023/04/07 08:06:08;;;;;;;19.02;11.35;;;;;;;3.33;100.00;98574.59;4161606;28;20075;-70
2023/04/07 08:08:08;;;;;;;17.52;11.02;;;;;;;3.44;98.74;98575.81;4160516;28;20156;-70
2023/04/07 08:10:09;;;;;;;17.85;11.15;;;;;;;3.44;98.48;98584.03;4160860;28;20033;-69
2023/04/07 08:12:09;;;;;;;15.50;9.15;;;;;;;3.45;98.07;98582.91;4159223;28;20030;-70
2023/04/07 08:14:10;;;;;;;16.05;10.18;;;;;;;3.56;98.08;98581.41;4158360;28;20477;-70
2023/04/07 08:16:10;;;;;;;12.77;8.60;;;;;;;3.70;97.06;98585.84;4159804;28;20459;-70
2023/04/07 08:18:11;;;;;;;14.48;9.27;;;;;;;3.82;94.90;98584.00;4161248;28;20036;-69
2023/04/07 08:20:11;;;;;;;13.07;8.45;;;;;;;3.83;94.65;98573.88;4162203;28;20091;-69
2023/04/07 08:22:11;;;;;;;11.95;8.25;;;;;;;3.88;94.60;98579.13;4163301;28;20041;-70
2023/04/07 08:24:12;;;;;;;15.80;8.55;;;;;;;4.02;93.76;98584.38;4161837;28;20139;-69
2023/04/07 08:26:12;;;;;;;12.38;8.10;;;;;;;4.28;95.60;98576.75;4162463;28;20038;-69
2023/04/07 08:28:12;;;;;;;12.98;8.00;;;;;;;4.58;89.32;98582.19;4161509;28;20032;-69
2023/04/07 08:30:13;;;;;;;15.27;8.70;;;;;;;4.73;88.38;98579.63;4164756;28;20563;-69
2023/04/07 08:32:13;;;;;;;13.02;7.80;;;;;;;4.73;88.16;98578.81;4161856;28;20021;-69
2023/04/07 08:34:15;;;;;;;13.60;7.63;;;;;;;4.84;86.86;98579.19;4159840;28;20021;-69
2023/04/07 08:36:15;;;;;;;13.65;7.93;;;;;;;4.91;86.66;98576.72;4163867;28;20033;-69
2023/04/07 08:38:16;;;;;;;13.35;8.27;;;;;;;4.94;88.23;98576.81;4161890;28;20381;-69
2023/04/07 08:40:16;;;;;;;15.38;7.78;;;;;;;5.06;86.96;98579.59;4166871;28;20469;-69
2023/04/07 08:42:18;;;;;;;13.15;8.02;;;;;;;5.08;85.01;98582.81;4163026;28;20400;-70
2023/04/07 08:44:21;;;;;;;15.43;9.13;;;;;;;5.17;85.57;98581.91;4161429;28;20041;-69
2023/04/07 08:46:22;;;;;;;;;;;;;;;5.19;85.63;98580.41;4161786;28;20052;-70
2023/04/07 08:48:27;;;;;;;14.32;7.20;;;;;;;5.28;86.00;98577.56;4161511;28;19948;-70
2023/04/07 08:50:28;;;;;;;15.70;8.55;;;;;;;5.36;85.39;98574.72;4161649;28;20042;-70
2023/04/07 08:52:43;;;;;;;14.27;8.00;;;;;;;5.43;87.04;98582.41;4161212;28;20059;-70
2023/04/07 08:54:43;;;;;;;16.67;8.68;;;;;;;5.51;83.77;98575.22;4162044;28;20064;-70
2023/04/07 08:56:44;;;;;;;14.75;9.25;;;;;;;5.49;84.46;98577.50;4164147;28;20432;-70
2023/04/07 08:58:47;;;;;;;15.27;8.13;;;;;;;5.58;87.27;98578.19;4164709;28;20041;-70
2023/04/07 09:00:48;;;;;;;14.10;8.57;;;;;;;5.83;81.41;98568.00;4160422;28;20508;-70
2023/04/07 09:02:50;;;;;;;16.02;8.55;;;;;;;6.03;82.52;98575.31;4160729;28;20038;-70
2023/04/07 09:04:51;;;;;;;14.63;8.93;;;;;;;6.06;79.32;98571.91;4160231;28;20077;-70
2023/04/07 09:06:51;;;;;;;16.27;9.55;;;;;;;6.25;79.42;98574.03;4162421;28;20359;-70
2023/04/07 09:08:51;;;;;;;15.25;8.98;;;;;;;6.42;79.46;98576.50;4163888;28;20127;-70
2023/04/07 09:10:52;;;;;;;16.05;9.43;;;;;;;6.50;79.12;98580.28;4163902;28;20192;-70
2023/04/07 09:12:53;;;;;;;14.73;10.15;;;;;;;6.52;77.77;98572.47;4163067;28;20037;-70
2023/04/07 09:14:54;;;;;;;14.52;8.65;;;;;;;6.63;75.46;98589.28;4160004;28;20060;-70